sensor_id;sensor_type;location;lat;lon;timestamp;temperature;humidity
71173;DHT22;58875;51.996;4.504;2022-08-19T00:01:37;19.39;81.33
71173;DHT22;58875;51.996;4.504;2022-08-19T00:04:07;19.39;81.13
71173;DHT22;58875;51.996;4.504;2022-08-19T00:06:34;19.36;81.04
71173;DHT22;58875;51.996;4.504;2022-08-19T00:09:00;19.36;81.17
71173;DHT22;58875;51.996;4.504;2022-08-19T00:11:26;19.30;81.18
71173;DHT22;58875;51.996;4.504;2022-08-19T00:13:54;19.26;81.57
71173;DHT22;58875;51.996;4.504;2022-08-19T00:16:21;19.27;81.60
71173;DHT22;58875;51.996;4.504;2022-08-19T00:18:48;19.23;81.09
71173;DHT22;58875;51.996;4.504;2022-08-19T00:21:14;19.18;81.29
71173;DHT22;58875;51.996;4.504;2022-08-19T00:23:41;19.15;81.58
71173;DHT22;58875;51.996;4.504;2022-08-19T00:26:09;19.16;81.46
71173;DHT22;58875;51.996;4.504;2022-08-19T00:28:35;19.19;81.67
71173;DHT22;58875;51.996;4.504;2022-08-19T00:31:05;19.18;81.63
71173;DHT22;58875;51.996;4.504;2022-08-19T00:33:32;19.18;81.81
71173;DHT22;58875;51.996;4.504;2022-08-19T00:35:59;19.18;82.03
71173;DHT22;58875;51.996;4.504;2022-08-19T00:38:25;19.20;82.11
71173;DHT22;58875;51.996;4.504;2022-08-19T00:40:50;19.19;82.02
71173;DHT22;58875;51.996;4.504;2022-08-19T00:43:20;19.19;82.06
71173;DHT22;58875;51.996;4.504;2022-08-19T00:45:47;19.19;81.97
71173;DHT22;58875;51.996;4.504;2022-08-19T00:48:14;19.13;82.16
71173;DHT22;58875;51.996;4.504;2022-08-19T00:50:43;19.19;82.09
71173;DHT22;58875;51.996;4.504;2022-08-19T00:53:12;19.15;82.08
71173;DHT22;58875;51.996;4.504;2022-08-19T00:55:42;19.13;82.19
71173;DHT22;58875;51.996;4.504;2022-08-19T00:58:14;19.13;82.20
71173;DHT22;58875;51.996;4.504;2022-08-19T01:00:40;19.08;82.30
71173;DHT22;58875;51.996;4.504;2022-08-19T01:03:09;19.11;82.13
71173;DHT22;58875;51.996;4.504;2022-08-19T01:05:37;19.05;81.99
71173;DHT22;58875;51.996;4.504;2022-08-19T01:08:06;19.06;82.25
71173;DHT22;58875;51.996;4.504;2022-08-19T01:10:39;19.06;82.18
71173;DHT22;58875;51.996;4.504;2022-08-19T01:13:05;19.08;82.30
71173;DHT22;58875;51.996;4.504;2022-08-19T01:15:35;19.03;82.20
71173;DHT22;58875;51.996;4.504;2022-08-19T01:18:06;18.98;82.19
71173;DHT22;58875;51.996;4.504;2022-08-19T01:20:32;18.94;82.35
71173;DHT22;58875;51.996;4.504;2022-08-19T01:23:00;18.96;82.50
71173;DHT22;58875;51.996;4.504;2022-08-19T01:25:31;19.03;82.54
71173;DHT22;58875;51.996;4.504;2022-08-19T01:27:58;19.06;82.62
71173;DHT22;58875;51.996;4.504;2022-08-19T01:30:28;19.06;82.62
71173;DHT22;58875;51.996;4.504;2022-08-19T01:32:56;19.08;82.72
71173;DHT22;58875;51.996;4.504;2022-08-19T01:35:27;19.13;82.65
71173;DHT22;58875;51.996;4.504;2022-08-19T01:38:00;19.18;82.65
71173;DHT22;58875;51.996;4.504;2022-08-19T01:40:30;19.13;82.51
71173;DHT22;58875;51.996;4.504;2022-08-19T01:42:57;19.11;82.41
71173;DHT22;58875;51.996;4.504;2022-08-19T01:45:26;19.19;82.46
71173;DHT22;58875;51.996;4.504;2022-08-19T01:47:53;19.22;82.73
71173;DHT22;58875;51.996;4.504;2022-08-19T01:50:19;19.23;82.78
71173;DHT22;58875;51.996;4.504;2022-08-19T01:52:45;19.25;82.73
71173;DHT22;58875;51.996;4.504;2022-08-19T01:55:14;19.26;82.75
71173;DHT22;58875;51.996;4.504;2022-08-19T01:57:44;19.30;83.04
71173;DHT22;58875;51.996;4.504;2022-08-19T02:00:14;19.27;83.31
71173;DHT22;58875;51.996;4.504;2022-08-19T02:02:41;19.33;83.55
71173;DHT22;58875;51.996;4.504;2022-08-19T02:05:08;19.37;83.58
71173;DHT22;58875;51.996;4.504;2022-08-19T02:07:35;19.37;83.11
71173;DHT22;58875;51.996;4.504;2022-08-19T02:10:03;19.42;82.97
71173;DHT22;58875;51.996;4.504;2022-08-19T02:12:29;19.47;82.85
71173;DHT22;58875;51.996;4.504;2022-08-19T02:14:54;19.52;82.80
71173;DHT22;58875;51.996;4.504;2022-08-19T02:17:20;19.49;82.67
71173;DHT22;58875;51.996;4.504;2022-08-19T02:19:45;19.40;82.77
71173;DHT22;58875;51.996;4.504;2022-08-19T02:22:11;19.34;83.02
71173;DHT22;58875;51.996;4.504;2022-08-19T02:24:37;19.33;82.94
71173;DHT22;58875;51.996;4.504;2022-08-19T02:27:04;19.36;83.30
71173;DHT22;58875;51.996;4.504;2022-08-19T02:29:29;19.37;83.22
71173;DHT22;58875;51.996;4.504;2022-08-19T02:31:55;19.37;83.28
71173;DHT22;58875;51.996;4.504;2022-08-19T02:34:21;19.39;83.31
71173;DHT22;58875;51.996;4.504;2022-08-19T02:36:47;19.37;83.07
71173;DHT22;58875;51.996;4.504;2022-08-19T02:39:12;19.27;82.94
71173;DHT22;58875;51.996;4.504;2022-08-19T02:41:38;19.33;82.78
71173;DHT22;58875;51.996;4.504;2022-08-19T02:44:04;19.22;82.78
71173;DHT22;58875;51.996;4.504;2022-08-19T02:46:32;19.20;83.02
71173;DHT22;58875;51.996;4.504;2022-08-19T02:49:02;19.23;82.91
71173;DHT22;58875;51.996;4.504;2022-08-19T02:51:34;19.29;83.02
71173;DHT22;58875;51.996;4.504;2022-08-19T02:54:00;19.30;83.29
71173;DHT22;58875;51.996;4.504;2022-08-19T02:56:26;19.29;83.20
71173;DHT22;58875;51.996;4.504;2022-08-19T02:58:54;19.30;83.24
71173;DHT22;58875;51.996;4.504;2022-08-19T03:01:23;19.27;82.88
71173;DHT22;58875;51.996;4.504;2022-08-19T03:03:49;19.20;82.78
71173;DHT22;58875;51.996;4.504;2022-08-19T03:06:16;19.26;82.96
71173;DHT22;58875;51.996;4.504;2022-08-19T03:08:44;19.26;83.23
71173;DHT22;58875;51.996;4.504;2022-08-19T03:11:20;19.23;83.41
71173;DHT22;58875;51.996;4.504;2022-08-19T03:13:49;19.26;83.56
71173;DHT22;58875;51.996;4.504;2022-08-19T03:16:17;19.25;83.72
71173;DHT22;58875;51.996;4.504;2022-08-19T03:18:44;19.29;83.96
71173;DHT22;58875;51.996;4.504;2022-08-19T03:21:16;19.29;83.97
71173;DHT22;58875;51.996;4.504;2022-08-19T03:23:42;19.22;84.03
71173;DHT22;58875;51.996;4.504;2022-08-19T03:26:07;19.23;83.91
71173;DHT22;58875;51.996;4.504;2022-08-19T03:28:33;19.20;84.09
71173;DHT22;58875;51.996;4.504;2022-08-19T03:31:06;19.20;84.13
71173;DHT22;58875;51.996;4.504;2022-08-19T03:33:34;19.25;84.09
71173;DHT22;58875;51.996;4.504;2022-08-19T03:38:27;19.18;84.10
71173;DHT22;58875;51.996;4.504;2022-08-19T03:40:53;19.18;84.17
71173;DHT22;58875;51.996;4.504;2022-08-19T03:43:18;19.15;84.10
71173;DHT22;58875;51.996;4.504;2022-08-19T03:45:44;19.15;84.20
71173;DHT22;58875;51.996;4.504;2022-08-19T03:48:09;19.16;84.38
71173;DHT22;58875;51.996;4.504;2022-08-19T03:50:39;19.25;84.58
71173;DHT22;58875;51.996;4.504;2022-08-19T03:53:05;19.25;84.37
71173;DHT22;58875;51.996;4.504;2022-08-19T03:55:32;19.25;84.33
71173;DHT22;58875;51.996;4.504;2022-08-19T03:57:58;19.13;84.44
71173;DHT22;58875;51.996;4.504;2022-08-19T04:00:23;19.11;84.61
71173;DHT22;58875;51.996;4.504;2022-08-19T04:02:49;19.12;84.69
71173;DHT22;58875;51.996;4.504;2022-08-19T04:05:14;19.08;84.80
71173;DHT22;58875;51.996;4.504;2022-08-19T04:07:40;19.11;84.84
71173;DHT22;58875;51.996;4.504;2022-08-19T04:10:06;19.16;84.67
71173;DHT22;58875;51.996;4.504;2022-08-19T04:12:31;19.20;84.45
71173;DHT22;58875;51.996;4.504;2022-08-19T04:14:57;19.23;84.57
71173;DHT22;58875;51.996;4.504;2022-08-19T04:17:23;19.20;84.63
71173;DHT22;58875;51.996;4.504;2022-08-19T04:19:49;19.16;84.93
71173;DHT22;58875;51.996;4.504;2022-08-19T04:22:15;19.18;85.02
71173;DHT22;58875;51.996;4.504;2022-08-19T04:24:41;19.09;85.38
71173;DHT22;58875;51.996;4.504;2022-08-19T04:27:06;19.11;85.43
71173;DHT22;58875;51.996;4.504;2022-08-19T04:29:33;19.15;85.41
71173;DHT22;58875;51.996;4.504;2022-08-19T04:31:59;19.05;85.77
71173;DHT22;58875;51.996;4.504;2022-08-19T04:34:27;19.03;86.22
71173;DHT22;58875;51.996;4.504;2022-08-19T04:36:55;19.03;86.28
71173;DHT22;58875;51.996;4.504;2022-08-19T04:39:25;19.09;86.37
71173;DHT22;58875;51.996;4.504;2022-08-19T04:42:15;19.15;86.32
71173;DHT22;58875;51.996;4.504;2022-08-19T04:44:59;19.15;86.20
71173;DHT22;58875;51.996;4.504;2022-08-19T04:47:25;19.11;86.51
71173;DHT22;58875;51.996;4.504;2022-08-19T04:49:51;19.16;86.41
71173;DHT22;58875;51.996;4.504;2022-08-19T04:52:16;19.09;86.73
71173;DHT22;58875;51.996;4.504;2022-08-19T04:54:42;19.15;86.76
71173;DHT22;58875;51.996;4.504;2022-08-19T04:57:09;19.19;86.64
71173;DHT22;58875;51.996;4.504;2022-08-19T04:59:36;19.22;86.61
71173;DHT22;58875;51.996;4.504;2022-08-19T05:02:03;19.30;86.22
71173;DHT22;58875;51.996;4.504;2022-08-19T05:04:29;19.29;86.47
71173;DHT22;58875;51.996;4.504;2022-08-19T05:06:59;19.37;86.34
71173;DHT22;58875;51.996;4.504;2022-08-19T05:09:26;19.46;86.14
71173;DHT22;58875;51.996;4.504;2022-08-19T05:11:51;19.49;85.75
71173;DHT22;58875;51.996;4.504;2022-08-19T05:14:18;19.52;85.90
71173;DHT22;58875;51.996;4.504;2022-08-19T05:16:45;19.56;85.82
71173;DHT22;58875;51.996;4.504;2022-08-19T05:19:10;19.60;85.92
71173;DHT22;58875;51.996;4.504;2022-08-19T05:21:55;19.70;85.28
71173;DHT22;58875;51.996;4.504;2022-08-19T05:24:42;19.66;85.57
71173;DHT22;58875;51.996;4.504;2022-08-19T05:27:07;19.70;85.61
71173;DHT22;58875;51.996;4.504;2022-08-19T05:29:34;19.71;85.26
71173;DHT22;58875;51.996;4.504;2022-08-19T05:32:01;19.71;85.56
71173;DHT22;58875;51.996;4.504;2022-08-19T05:34:27;19.78;85.39
71173;DHT22;58875;51.996;4.504;2022-08-19T05:36:56;19.80;85.38
71173;DHT22;58875;51.996;4.504;2022-08-19T05:39:26;19.85;85.31
71173;DHT22;58875;51.996;4.504;2022-08-19T05:41:58;19.91;85.11
71173;DHT22;58875;51.996;4.504;2022-08-19T05:44:27;19.85;85.05
71173;DHT22;58875;51.996;4.504;2022-08-19T05:46:57;19.93;84.96
71173;DHT22;58875;51.996;4.504;2022-08-19T05:49:24;19.94;84.71
71173;DHT22;58875;51.996;4.504;2022-08-19T05:51:51;20.03;84.34
71173;DHT22;58875;51.996;4.504;2022-08-19T05:54:18;20.07;84.42
71173;DHT22;58875;51.996;4.504;2022-08-19T05:56:44;19.98;84.31
71173;DHT22;58875;51.996;4.504;2022-08-19T05:59:15;20.04;84.92
71173;DHT22;58875;51.996;4.504;2022-08-19T06:01:44;20.21;84.64
71173;DHT22;58875;51.996;4.504;2022-08-19T06:04:12;20.31;83.93
71173;DHT22;58875;51.996;4.504;2022-08-19T06:06:39;20.34;83.60
71173;DHT22;58875;51.996;4.504;2022-08-19T06:09:07;20.38;83.54
71173;DHT22;58875;51.996;4.504;2022-08-19T06:11:52;20.31;83.13
71173;DHT22;58875;51.996;4.504;2022-08-19T06:14:28;20.29;83.63
71173;DHT22;58875;51.996;4.504;2022-08-19T06:16:55;20.34;83.71
71173;DHT22;58875;51.996;4.504;2022-08-19T06:19:22;20.38;83.55
71173;DHT22;58875;51.996;4.504;2022-08-19T06:21:50;20.42;83.37
71173;DHT22;58875;51.996;4.504;2022-08-19T06:24:19;20.45;83.50
71173;DHT22;58875;51.996;4.504;2022-08-19T06:26:47;20.45;83.34
71173;DHT22;58875;51.996;4.504;2022-08-19T06:29:15;20.48;83.15
71173;DHT22;58875;51.996;4.504;2022-08-19T06:31:49;20.46;83.33
71173;DHT22;58875;51.996;4.504;2022-08-19T06:34:16;20.44;83.38
71173;DHT22;58875;51.996;4.504;2022-08-19T06:36:45;20.59;83.38
71173;DHT22;58875;51.996;4.504;2022-08-19T06:39:16;20.66;83.14
71173;DHT22;58875;51.996;4.504;2022-08-19T06:41:46;20.77;82.52
71173;DHT22;58875;51.996;4.504;2022-08-19T06:44:13;20.71;82.98
71173;DHT22;58875;51.996;4.504;2022-08-19T06:46:40;20.87;82.95
71173;DHT22;58875;51.996;4.504;2022-08-19T06:49:07;20.99;82.38
71173;DHT22;58875;51.996;4.504;2022-08-19T06:51:36;21.04;81.62
71173;DHT22;58875;51.996;4.504;2022-08-19T06:54:02;21.10;81.92
71173;DHT22;58875;51.996;4.504;2022-08-19T06:56:30;21.10;81.72
71173;DHT22;58875;51.996;4.504;2022-08-19T06:59:19;21.08;81.67
71173;DHT22;58875;51.996;4.504;2022-08-19T07:01:50;21.14;81.93
71173;DHT22;58875;51.996;4.504;2022-08-19T07:04:18;21.19;81.73
71173;DHT22;58875;51.996;4.504;2022-08-19T07:06:44;21.17;81.52
71173;DHT22;58875;51.996;4.504;2022-08-19T07:09:12;21.08;81.29
71173;DHT22;58875;51.996;4.504;2022-08-19T07:11:44;21.14;81.49
71173;DHT22;58875;51.996;4.504;2022-08-19T07:14:10;21.27;81.53
71173;DHT22;58875;51.996;4.504;2022-08-19T07:16:36;21.47;81.63
71173;DHT22;58875;51.996;4.504;2022-08-19T07:19:01;21.50;80.54
71173;DHT22;58875;51.996;4.504;2022-08-19T07:21:28;21.58;80.95
71173;DHT22;58875;51.996;4.504;2022-08-19T07:23:55;21.51;80.60
71173;DHT22;58875;51.996;4.504;2022-08-19T07:26:28;21.55;80.36
71173;DHT22;58875;51.996;4.504;2022-08-19T07:28:55;21.61;80.70
71173;DHT22;58875;51.996;4.504;2022-08-19T07:31:23;21.54;80.69
71173;DHT22;58875;51.996;4.504;2022-08-19T07:33:52;21.58;80.58
71173;DHT22;58875;51.996;4.504;2022-08-19T07:36:24;21.57;80.49
71173;DHT22;58875;51.996;4.504;2022-08-19T07:38:52;21.62;80.41
71173;DHT22;58875;51.996;4.504;2022-08-19T07:41:23;21.68;80.59
71173;DHT22;58875;51.996;4.504;2022-08-19T07:43:50;21.64;80.03
71173;DHT22;58875;51.996;4.504;2022-08-19T07:46:17;21.51;80.58
71173;DHT22;58875;51.996;4.504;2022-08-19T07:48:44;21.50;80.33
71173;DHT22;58875;51.996;4.504;2022-08-19T07:51:20;21.31;80.64
71173;DHT22;58875;51.996;4.504;2022-08-19T07:53:48;21.38;81.11
71173;DHT22;58875;51.996;4.504;2022-08-19T07:56:17;21.47;80.88
71173;DHT22;58875;51.996;4.504;2022-08-19T07:58:45;21.61;80.58
71173;DHT22;58875;51.996;4.504;2022-08-19T08:01:17;21.66;80.41
71173;DHT22;58875;51.996;4.504;2022-08-19T08:03:42;21.78;80.18
71173;DHT22;58875;51.996;4.504;2022-08-19T08:06:27;21.78;79.78
71173;DHT22;58875;51.996;4.504;2022-08-19T08:09:12;21.88;79.54
71173;DHT22;58875;51.996;4.504;2022-08-19T08:11:56;21.95;79.52
71173;DHT22;58875;51.996;4.504;2022-08-19T08:14:29;21.91;79.21
71173;DHT22;58875;51.996;4.504;2022-08-19T08:16:57;21.94;79.20
71173;DHT22;58875;51.996;4.504;2022-08-19T08:19:25;21.99;78.77
71173;DHT22;58875;51.996;4.504;2022-08-19T08:21:55;21.91;79.60
71173;DHT22;58875;51.996;4.504;2022-08-19T08:24:21;22.16;78.89
71173;DHT22;58875;51.996;4.504;2022-08-19T08:26:47;22.36;78.74
71173;DHT22;58875;51.996;4.504;2022-08-19T08:29:14;22.39;78.70
71173;DHT22;58875;51.996;4.504;2022-08-19T08:31:43;22.52;77.11
71173;DHT22;58875;51.996;4.504;2022-08-19T08:34:10;22.59;77.12
71173;DHT22;58875;51.996;4.504;2022-08-19T08:36:41;22.71;77.32
71173;DHT22;58875;51.996;4.504;2022-08-19T08:39:15;22.86;76.62
71173;DHT22;58875;51.996;4.504;2022-08-19T08:47:05;22.60;77.14
71173;DHT22;58875;51.996;4.504;2022-08-19T08:52:48;22.97;76.37
71173;DHT22;58875;51.996;4.504;2022-08-19T08:55:22;23.31;75.20
71173;DHT22;58875;51.996;4.504;2022-08-19T09:00:29;23.61;73.53
71173;DHT22;58875;51.996;4.504;2022-08-19T09:02:57;23.89;72.91
71173;DHT22;58875;51.996;4.504;2022-08-19T09:05:31;24.13;70.87
71173;DHT22;58875;51.996;4.504;2022-08-19T09:08:08;24.31;70.24
71173;DHT22;58875;51.996;4.504;2022-08-19T09:10:43;24.26;70.46
71173;DHT22;58875;51.996;4.504;2022-08-19T09:13:24;24.40;71.29
71173;DHT22;58875;51.996;4.504;2022-08-19T09:16:18;24.55;70.24
71173;DHT22;58875;51.996;4.504;2022-08-19T09:18:55;24.51;70.49
71173;DHT22;58875;51.996;4.504;2022-08-19T09:21:24;24.61;69.37
71173;DHT22;58875;51.996;4.504;2022-08-19T09:23:51;24.28;69.86
71173;DHT22;58875;51.996;4.504;2022-08-19T09:26:20;23.97;70.91
71173;DHT22;58875;51.996;4.504;2022-08-19T09:28:49;23.82;71.66
71173;DHT22;58875;51.996;4.504;2022-08-19T09:31:19;23.62;72.40
71173;DHT22;58875;51.996;4.504;2022-08-19T09:33:46;23.45;72.06
71173;DHT22;58875;51.996;4.504;2022-08-19T09:38:42;23.39;71.44
71173;DHT22;58875;51.996;4.504;2022-08-19T09:41:12;23.28;72.17
71173;DHT22;58875;51.996;4.504;2022-08-19T09:43:39;23.22;72.36
71173;DHT22;58875;51.996;4.504;2022-08-19T09:46:07;23.05;72.70
71173;DHT22;58875;51.996;4.504;2022-08-19T09:48:35;22.90;72.88
71173;DHT22;58875;51.996;4.504;2022-08-19T09:51:10;23.01;73.26
71173;DHT22;58875;51.996;4.504;2022-08-19T09:53:38;23.15;72.59
71173;DHT22;58875;51.996;4.504;2022-08-19T09:56:05;23.17;72.57
71173;DHT22;58875;51.996;4.504;2022-08-19T09:58:32;23.07;72.33
71173;DHT22;58875;51.996;4.504;2022-08-19T10:01:00;23.14;72.35
71173;DHT22;58875;51.996;4.504;2022-08-19T10:03:27;23.45;71.40
71173;DHT22;58875;51.996;4.504;2022-08-19T10:05:54;23.79;69.76
71173;DHT22;58875;51.996;4.504;2022-08-19T10:08:23;23.82;68.97
71173;DHT22;58875;51.996;4.504;2022-08-19T10:10:51;24.07;69.36
71173;DHT22;58875;51.996;4.504;2022-08-19T10:13:20;24.34;68.80
71173;DHT22;58875;51.996;4.504;2022-08-19T10:15:49;24.41;66.94
71173;DHT22;58875;51.996;4.504;2022-08-19T10:18:19;24.16;67.98
71173;DHT22;58875;51.996;4.504;2022-08-19T10:20:47;24.44;69.48
71173;DHT22;58875;51.996;4.504;2022-08-19T10:25:41;24.94;65.93
71173;DHT22;58875;51.996;4.504;2022-08-19T10:28:08;24.71;66.43
71173;DHT22;58875;51.996;4.504;2022-08-19T10:30:35;24.57;66.41
71173;DHT22;58875;51.996;4.504;2022-08-19T10:33:01;24.45;66.21
71173;DHT22;58875;51.996;4.504;2022-08-19T10:35:26;24.37;66.46
71173;DHT22;58875;51.996;4.504;2022-08-19T10:37:53;24.53;65.75
71173;DHT22;58875;51.996;4.504;2022-08-19T10:40:19;24.68;65.57
71173;DHT22;58875;51.996;4.504;2022-08-19T10:42:44;24.75;66.01
71173;DHT22;58875;51.996;4.504;2022-08-19T10:45:10;24.88;65.68
71173;DHT22;58875;51.996;4.504;2022-08-19T10:47:36;24.67;65.47
71173;DHT22;58875;51.996;4.504;2022-08-19T10:50:03;24.34;66.40
71173;DHT22;58875;51.996;4.504;2022-08-19T10:52:49;24.09;67.37
71173;DHT22;58875;51.996;4.504;2022-08-19T10:55:15;23.75;68.51
71173;DHT22;58875;51.996;4.504;2022-08-19T10:57:59;23.72;69.59
71173;DHT22;58875;51.996;4.504;2022-08-19T11:00:25;23.90;70.11
71173;DHT22;58875;51.996;4.504;2022-08-19T11:02:51;23.99;69.02
71173;DHT22;58875;51.996;4.504;2022-08-19T11:05:18;23.89;68.83
71173;DHT22;58875;51.996;4.504;2022-08-19T11:07:45;23.90;69.63
71173;DHT22;58875;51.996;4.504;2022-08-19T11:10:13;23.75;69.62
71173;DHT22;58875;51.996;4.504;2022-08-19T11:12:40;23.72;70.61
71173;DHT22;58875;51.996;4.504;2022-08-19T11:15:09;23.75;71.82
71173;DHT22;58875;51.996;4.504;2022-08-19T11:17:40;23.90;72.07
71173;DHT22;58875;51.996;4.504;2022-08-19T11:20:07;24.09;72.24
71173;DHT22;58875;51.996;4.504;2022-08-19T11:22:33;23.97;70.51
71173;DHT22;58875;51.996;4.504;2022-08-19T11:24:59;23.95;71.15
71173;DHT22;58875;51.996;4.504;2022-08-19T11:27:24;23.83;71.22
71173;DHT22;58875;51.996;4.504;2022-08-19T11:29:50;23.86;71.54
71173;DHT22;58875;51.996;4.504;2022-08-19T11:32:17;23.89;70.84
71173;DHT22;58875;51.996;4.504;2022-08-19T11:34:43;23.97;70.84
71173;DHT22;58875;51.996;4.504;2022-08-19T11:37:08;24.09;70.70
71173;DHT22;58875;51.996;4.504;2022-08-19T11:39:36;24.26;70.73
71173;DHT22;58875;51.996;4.504;2022-08-19T11:42:04;24.43;69.73
71173;DHT22;58875;51.996;4.504;2022-08-19T11:44:50;24.37;68.54
71173;DHT22;58875;51.996;4.504;2022-08-19T11:47:16;24.16;68.17
71173;DHT22;58875;51.996;4.504;2022-08-19T11:49:41;24.20;68.94
71173;DHT22;58875;51.996;4.504;2022-08-19T11:52:07;24.18;68.76
71173;DHT22;58875;51.996;4.504;2022-08-19T11:54:33;24.14;69.11
71173;DHT22;58875;51.996;4.504;2022-08-19T11:56:58;24.16;69.90
71173;DHT22;58875;51.996;4.504;2022-08-19T11:59:26;24.16;70.06
71173;DHT22;58875;51.996;4.504;2022-08-19T12:01:52;24.28;70.81
71173;DHT22;58875;51.996;4.504;2022-08-19T12:04:18;24.38;69.39
71173;DHT22;58875;51.996;4.504;2022-08-19T12:06:43;24.63;70.91
71173;DHT22;58875;51.996;4.504;2022-08-19T12:09:10;24.95;70.62
71173;DHT22;58875;51.996;4.504;2022-08-19T12:11:37;25.04;69.46
71173;DHT22;58875;51.996;4.504;2022-08-19T12:14:03;25.11;70.29
71173;DHT22;58875;51.996;4.504;2022-08-19T12:16:30;25.30;68.28
71173;DHT22;58875;51.996;4.504;2022-08-19T12:18:58;25.14;67.08
71173;DHT22;58875;51.996;4.504;2022-08-19T12:21:30;25.26;68.19
71173;DHT22;58875;51.996;4.504;2022-08-19T12:23:57;25.29;67.84
71173;DHT22;58875;51.996;4.504;2022-08-19T12:26:25;25.09;67.97
71173;DHT22;58875;51.996;4.504;2022-08-19T12:28:51;25.20;68.09
71173;DHT22;58875;51.996;4.504;2022-08-19T12:31:17;25.23;68.11
71173;DHT22;58875;51.996;4.504;2022-08-19T12:33:45;25.15;68.69
71173;DHT22;58875;51.996;4.504;2022-08-19T12:36:13;25.08;68.97
71173;DHT22;58875;51.996;4.504;2022-08-19T12:38:41;25.01;69.27
71173;DHT22;58875;51.996;4.504;2022-08-19T12:41:11;24.94;70.84
71173;DHT22;58875;51.996;4.504;2022-08-19T12:43:37;24.91;70.30
71173;DHT22;58875;51.996;4.504;2022-08-19T12:46:05;24.95;72.16
71173;DHT22;58875;51.996;4.504;2022-08-19T12:48:32;24.82;70.74
71173;DHT22;58875;51.996;4.504;2022-08-19T12:51:01;24.88;70.08
71173;DHT22;58875;51.996;4.504;2022-08-19T12:53:30;24.78;70.07
71173;DHT22;58875;51.996;4.504;2022-08-19T12:55:56;24.92;71.23
71173;DHT22;58875;51.996;4.504;2022-08-19T12:58:22;25.04;70.38
71173;DHT22;58875;51.996;4.504;2022-08-19T13:00:48;24.88;70.01
71173;DHT22;58875;51.996;4.504;2022-08-19T13:03:14;24.85;70.23
71173;DHT22;58875;51.996;4.504;2022-08-19T13:05:41;24.88;70.30
71173;DHT22;58875;51.996;4.504;2022-08-19T13:08:07;24.74;70.25
71173;DHT22;58875;51.996;4.504;2022-08-19T13:10:34;24.50;70.69
71173;DHT22;58875;51.996;4.504;2022-08-19T13:13:03;24.48;71.34
71173;DHT22;58875;51.996;4.504;2022-08-19T13:15:33;24.31;70.13
71173;DHT22;58875;51.996;4.504;2022-08-19T13:17:59;24.33;71.55
71173;DHT22;58875;51.996;4.504;2022-08-19T13:20:26;24.31;71.49
71173;DHT22;58875;51.996;4.504;2022-08-19T13:22:51;24.47;71.38
71173;DHT22;58875;51.996;4.504;2022-08-19T13:25:17;24.65;70.60
71173;DHT22;58875;51.996;4.504;2022-08-19T13:27:46;24.77;70.30
71173;DHT22;58875;51.996;4.504;2022-08-19T13:30:14;24.85;68.03
71173;DHT22;58875;51.996;4.504;2022-08-19T13:32:59;24.72;68.91
71173;DHT22;58875;51.996;4.504;2022-08-19T13:38:08;24.74;68.30
71173;DHT22;58875;51.996;4.504;2022-08-19T13:40:34;24.74;67.71
71173;DHT22;58875;51.996;4.504;2022-08-19T13:43:03;24.63;67.91
71173;DHT22;58875;51.996;4.504;2022-08-19T13:45:31;24.65;67.63
71173;DHT22;58875;51.996;4.504;2022-08-19T13:48:02;24.72;67.47
71173;DHT22;58875;51.996;4.504;2022-08-19T13:50:30;24.71;68.42
71173;DHT22;58875;51.996;4.504;2022-08-19T13:52:57;24.91;67.45
71173;DHT22;58875;51.996;4.504;2022-08-19T13:55:24;25.08;65.08
71173;DHT22;58875;51.996;4.504;2022-08-19T13:57:52;24.98;64.90
71173;DHT22;58875;51.996;4.504;2022-08-19T14:00:18;24.85;65.49
71173;DHT22;58875;51.996;4.504;2022-08-19T14:02:46;24.78;66.90
71173;DHT22;58875;51.996;4.504;2022-08-19T14:05:16;24.94;68.03
71173;DHT22;58875;51.996;4.504;2022-08-19T14:07:43;24.96;67.72
71173;DHT22;58875;51.996;4.504;2022-08-19T14:10:11;24.98;67.99
71173;DHT22;58875;51.996;4.504;2022-08-19T14:12:37;24.74;66.45
71173;DHT22;58875;51.996;4.504;2022-08-19T14:15:05;24.48;66.96
71173;DHT22;58875;51.996;4.504;2022-08-19T14:17:31;24.53;67.48
71173;DHT22;58875;51.996;4.504;2022-08-19T14:20:03;24.54;67.30
71173;DHT22;58875;51.996;4.504;2022-08-19T14:22:35;24.57;67.07
71173;DHT22;58875;51.996;4.504;2022-08-19T14:25:02;24.51;67.09
71173;DHT22;58875;51.996;4.504;2022-08-19T14:27:28;24.26;67.63
71173;DHT22;58875;51.996;4.504;2022-08-19T14:29:56;24.12;68.65
71173;DHT22;58875;51.996;4.504;2022-08-19T14:32:22;23.99;69.45
71173;DHT22;58875;51.996;4.504;2022-08-19T14:34:47;23.97;71.63
71173;DHT22;58875;51.996;4.504;2022-08-19T14:37:14;24.07;71.85
71173;DHT22;58875;51.996;4.504;2022-08-19T14:39:43;24.00;71.63
71173;DHT22;58875;51.996;4.504;2022-08-19T14:42:12;23.85;72.35
71173;DHT22;58875;51.996;4.504;2022-08-19T14:44:40;23.83;73.29
71173;DHT22;58875;51.996;4.504;2022-08-19T14:47:06;23.92;73.22
71173;DHT22;58875;51.996;4.504;2022-08-19T14:49:34;23.82;73.12
71173;DHT22;58875;51.996;4.504;2022-08-19T14:52:06;23.83;73.36
71173;DHT22;58875;51.996;4.504;2022-08-19T14:54:42;23.73;73.61
71173;DHT22;58875;51.996;4.504;2022-08-19T14:57:18;23.86;73.51
71173;DHT22;58875;51.996;4.504;2022-08-19T14:59:46;23.79;73.54
71173;DHT22;58875;51.996;4.504;2022-08-19T15:02:12;23.73;73.51
71173;DHT22;58875;51.996;4.504;2022-08-19T15:04:37;23.75;73.83
71173;DHT22;58875;51.996;4.504;2022-08-19T15:07:04;23.59;73.79
71173;DHT22;58875;51.996;4.504;2022-08-19T15:09:33;23.54;74.75
71173;DHT22;58875;51.996;4.504;2022-08-19T15:12:00;23.66;74.28
71173;DHT22;58875;51.996;4.504;2022-08-19T15:14:27;23.66;73.36
71173;DHT22;58875;51.996;4.504;2022-08-19T15:16:57;23.63;73.49
71173;DHT22;58875;51.996;4.504;2022-08-19T15:19:23;23.62;73.74
71173;DHT22;58875;51.996;4.504;2022-08-19T15:21:48;23.54;73.76
71173;DHT22;58875;51.996;4.504;2022-08-19T15:24:14;23.24;75.08
71173;DHT22;58875;51.996;4.504;2022-08-19T15:26:40;22.94;77.18
71173;DHT22;58875;51.996;4.504;2022-08-19T15:29:05;22.87;78.11
71173;DHT22;58875;51.996;4.504;2022-08-19T15:31:31;22.73;78.76
71173;DHT22;58875;51.996;4.504;2022-08-19T15:34:02;22.71;79.02
71173;DHT22;58875;51.996;4.504;2022-08-19T15:36:28;22.50;79.30
71173;DHT22;58875;51.996;4.504;2022-08-19T15:38:55;22.42;81.20
71173;DHT22;58875;51.996;4.504;2022-08-19T15:41:29;22.30;81.19
71173;DHT22;58875;51.996;4.504;2022-08-19T15:43:56;22.29;81.58
71173;DHT22;58875;51.996;4.504;2022-08-19T15:46:27;22.33;81.66
71173;DHT22;58875;51.996;4.504;2022-08-19T15:48:57;22.28;81.10
71173;DHT22;58875;51.996;4.504;2022-08-19T15:51:25;22.16;80.88
71173;DHT22;58875;51.996;4.504;2022-08-19T15:53:51;22.05;80.83
71173;DHT22;58875;51.996;4.504;2022-08-19T15:56:17;22.04;81.16
71173;DHT22;58875;51.996;4.504;2022-08-19T15:58:43;21.96;81.21